Time;durP1;ratioP1;P1;durP2;ratioP2;P2;SDS_P1;SDS_P2;PMS_P1;PMS_P2;Temp;Humidity;BMP_temperature;BMP_pressure;BME280_temperature;BME280_humidity;BME280_pressure;Samples;Min_cycle;Max_cycle;Signal;HPM_P1;HPM_P2
2023/11/17 00:01:33;;;;;;;7.55;2.88;;;;;;;;;;5015141;28;20148;-69
2023/11/17 00:04:00;;;;;;;7.25;2.38;;;;;;;;;;5023852;28;20077;-69
2023/11/17 00:06:27;;;;;;;3.60;2.38;;;;;;;;;;5043681;28;20858;-69
2023/11/17 00:08:54;;;;;;;7.68;2.60;;;;;;;;;;5025835;28;20116;-68
2023/11/17 00:11:21;;;;;;;4.38;2.50;;;;;;;;;;5043262;28;20029;-68
2023/11/17 00:13:51;;;;;;;3.20;2.70;;;;;;;;;;5035532;28;20547;-69
2023/11/17 00:16:18;;;;;;;6.18;2.35;;;;;;;;;;5039364;28;20489;-68
2023/11/17 00:18:44;;;;;;;10.80;3.10;;;;;;;;;;5038343;28;20026;-67
2023/11/17 00:21:11;;;;;;;6.80;2.58;;;;;;;;;;5039726;28;20653;-68
2023/11/17 00:23:40;;;;;;;7.40;3.08;;;;;;;;;;5034061;28;20067;-68
2023/11/17 00:26:06;;;;;;;6.35;2.70;;;;;;;;;;5038059;28;20048;-68
2023/11/17 00:28:39;;;;;;;4.85;2.67;;;;;;;;;;5015169;28;20071;-68
2023/11/17 00:31:11;;;;;;;6.88;2.40;;;;;;;;;;5033730;28;20114;-68
2023/11/17 00:33:38;;;;;;;10.80;3.72;;;;;;;;;;5030637;28;20192;-68
2023/11/17 00:36:04;;;;;;;7.07;3.17;;;;;;;;;;5027619;28;20550;-67
2023/11/17 00:38:31;;;;;;;5.22;2.60;;;;;;;;;;5033938;28;20433;-67
2023/11/17 00:41:01;;;;;;;9.65;2.45;;;;;;;;;;5033004;28;20067;-68
2023/11/17 00:43:28;;;;;;;7.45;2.58;;;;;;;;;;5025993;28;20086;-68
2023/11/17 00:46:00;;;;;;;4.57;2.53;;;;;;;;;;5032010;28;20021;-68
2023/11/17 00:48:29;;;;;;;5.57;2.88;;;;;;;;;;5030320;28;20025;-68
2023/11/17 00:50:56;;;;;;;9.40;2.72;;;;;;;;;;5018578;28;20060;-68
2023/11/17 00:53:23;;;;;;;4.25;2.60;;;;;;;;;;5026760;28;20430;-68
2023/11/17 00:56:10;;;;;;;5.90;2.90;;;;;;;;;;5036674;28;20025;-69
2023/11/17 00:58:37;;;;;;;6.60;2.55;;;;;;;;;;5035977;28;20024;-68
2023/11/17 01:01:03;;;;;;;10.07;2.85;;;;;;;;;;5032736;28;20143;-68
2023/11/17 01:03:29;;;;;;;9.38;2.70;;;;;;;;;;5032636;28;20041;-69
2023/11/17 01:05:55;;;;;;;13.82;2.70;;;;;;;;;;5036217;28;20033;-68
2023/11/17 01:08:22;;;;;;;3.80;2.45;;;;;;;;;;5034773;28;20021;-68
2023/11/17 01:10:48;;;;;;;7.40;2.53;;;;;;;;;;5033203;28;20017;-69
2023/11/17 01:13:14;;;;;;;9.20;3.90;;;;;;;;;;5032410;28;20358;-68
2023/11/17 01:15:40;;;;;;;13.20;3.15;;;;;;;;;;5036348;28;20084;-69
2023/11/17 01:18:07;;;;;;;5.53;2.83;;;;;;;;;;5035724;28;20124;-69
2023/11/17 01:20:34;;;;;;;8.88;2.70;;;;;;;;;;5036887;28;20072;-68
2023/11/17 01:23:04;;;;;;;5.90;2.60;;;;;;;;;;5029634;28;20040;-68
2023/11/17 01:25:33;;;;;;;5.90;2.55;;;;;;;;;;5038234;28;20029;-68
2023/11/17 01:28:00;;;;;;;9.73;2.83;;;;;;;;;;5035545;28;20257;-67
2023/11/17 01:30:26;;;;;;;10.02;3.78;;;;;;;;;;5027674;28;20526;-69
2023/11/17 01:32:53;;;;;;;5.32;3.75;;;;;;;;;;5034939;28;20031;-70
2023/11/17 01:35:19;;;;;;;6.20;3.13;;;;;;;;;;5031535;28;20368;-69
2023/11/17 01:37:45;;;;;;;10.40;3.88;;;;;;;;;;5039033;28;20025;-69
2023/11/17 01:40:12;;;;;;;7.63;3.20;;;;;;;;;;5034917;28;20045;-68
2023/11/17 01:42:38;;;;;;;9.50;3.17;;;;;;;;;;5031316;28;20075;-68
2023/11/17 01:45:08;;;;;;;3.17;2.80;;;;;;;;;;5030878;28;20506;-61
2023/11/17 01:47:37;;;;;;;7.05;2.20;;;;;;;;;;5042102;28;20112;-60
2023/11/17 01:50:03;;;;;;;6.15;2.70;;;;;;;;;;5035571;28;20603;-60
2023/11/17 01:52:30;;;;;;;7.05;3.03;;;;;;;;;;5015280;28;20123;-61
2023/11/17 01:54:56;;;;;;;9.50;3.35;;;;;;;;;;5036037;28;20057;-61
2023/11/17 01:57:23;;;;;;;11.93;3.40;;;;;;;;;;5022874;28;20029;-61
2023/11/17 01:59:50;;;;;;;6.47;2.40;;;;;;;;;;5036608;28;20033;-61
2023/11/17 02:02:16;;;;;;;7.65;2.75;;;;;;;;;;5038504;28;20030;-61
2023/11/17 02:04:42;;;;;;;10.15;2.25;;;;;;;;;;4977527;28;1726358;-60
2023/11/17 02:07:13;;;;;;;5.05;2.67;;;;;;;;;;5041765;28;20024;-61
2023/11/17 02:09:51;;;;;;;2.85;2.17;;;;;;;;;;5038449;28;20056;-62
2023/11/17 02:12:23;;;;;;;9.68;2.50;;;;;;;;;;5018553;28;20472;-61
2023/11/17 02:14:50;;;;;;;10.73;2.67;;;;;;;;;;5034288;28;20020;-61
2023/11/17 02:17:17;;;;;;;9.07;2.50;;;;;;;;;;5033239;28;20374;-61
2023/11/17 02:19:45;;;;;;;9.80;2.30;;;;;;;;;;5040173;28;20064;-60
2023/11/17 02:22:13;;;;;;;4.22;2.10;;;;;;;;;;5039032;28;20082;-62
2023/11/17 02:24:44;;;;;;;6.70;2.55;;;;;;;;;;5040053;28;20075;-62
2023/11/17 02:27:20;;;;;;;10.60;2.47;;;;;;;;;;5039835;28;20128;-61
2023/11/17 02:29:47;;;;;;;10.15;2.22;;;;;;;;;;5037407;28;20028;-61
2023/11/17 02:32:24;;;;;;;11.02;2.88;;;;;;;;;;5038952;28;20116;-61
2023/11/17 02:34:53;;;;;;;4.05;2.35;;;;;;;;;;5035255;28;20463;-61
2023/11/17 02:37:24;;;;;;;6.68;2.50;;;;;;;;;;5046788;28;20059;-60
2023/11/17 02:39:50;;;;;;;7.43;2.22;;;;;;;;;;5036805;28;20025;-61
2023/11/17 02:42:24;;;;;;;4.65;2.25;;;;;;;;;;5035825;28;20053;-61
2023/11/17 02:44:50;;;;;;;5.75;2.20;;;;;;;;;;5039336;28;20422;-62
2023/11/17 02:47:27;;;;;;;7.93;2.83;;;;;;;;;;5022764;28;20029;-61
2023/11/17 02:50:00;;;;;;;6.90;2.55;;;;;;;;;;5039479;28;20064;-62
2023/11/17 02:52:32;;;;;;;7.30;2.60;;;;;;;;;;5034760;28;20044;-62
2023/11/17 02:54:59;;;;;;;7.00;2.72;;;;;;;;;;5038140;28;20283;-60
2023/11/17 02:57:25;;;;;;;10.23;2.50;;;;;;;;;;5040856;28;20056;-61
2023/11/17 02:59:53;;;;;;;5.85;2.95;;;;;;;;;;5038378;28;20021;-61
2023/11/17 03:02:19;;;;;;;10.70;2.72;;;;;;;;;;5038773;28;20067;-61
2023/11/17 03:04:46;;;;;;;9.77;3.25;;;;;;;;;;5037729;28;20428;-61
2023/11/17 03:07:15;;;;;;;8.38;2.83;;;;;;;;;;5040206;28;20113;-64
2023/11/17 03:09:41;;;;;;;4.00;2.17;;;;;;;;;;5036412;28;20029;-61
2023/11/17 03:12:07;;;;;;;7.20;1.95;;;;;;;;;;5035490;28;20079;-61
2023/11/17 03:14:33;;;;;;;5.90;2.55;;;;;;;;;;5038124;28;20733;-61
2023/11/17 03:17:00;;;;;;;4.13;2.10;;;;;;;;;;5029591;28;20030;-62
2023/11/17 03:19:26;;;;;;;10.95;2.58;;;;;;;;;;5022428;28;20592;-63
2023/11/17 03:21:57;;;;;;;7.85;2.35;;;;;;;;;;5041009;28;20033;-61
2023/11/17 03:24:24;;;;;;;8.52;3.03;;;;;;;;;;5035662;28;20586;-61
2023/11/17 03:26:55;;;;;;;14.20;2.50;;;;;;;;;;5037482;28;20052;-61
2023/11/17 03:29:22;;;;;;;6.53;2.55;;;;;;;;;;5037862;28;20080;-64
2023/11/17 03:31:49;;;;;;;10.93;2.92;;;;;;;;;;5018067;28;20041;-60
2023/11/17 03:34:15;;;;;;;4.18;2.25;;;;;;;;;;5038724;28;20391;-61
2023/11/17 03:36:41;;;;;;;4.57;2.28;;;;;;;;;;5037414;28;20029;-61
2023/11/17 03:39:14;;;;;;;9.77;2.63;;;;;;;;;;5035722;28;20480;-61
2023/11/17 03:41:41;;;;;;;5.80;2.28;;;;;;;;;;5033302;28;20021;-60
2023/11/17 03:44:08;;;;;;;12.48;3.45;;;;;;;;;;5031422;28;20110;-61
2023/11/17 03:46:35;;;;;;;5.18;2.30;;;;;;;;;;5041321;28;20029;-63
2023/11/17 03:49:01;;;;;;;6.75;2.25;;;;;;;;;;5019661;28;20036;-61
2023/11/17 03:51:28;;;;;;;9.52;2.42;;;;;;;;;;5041158;28;20555;-60
2023/11/17 03:53:54;;;;;;;6.13;2.38;;;;;;;;;;5041530;28;20482;-61
2023/11/17 03:56:20;;;;;;;8.77;2.42;;;;;;;;;;5033910;28;20036;-61
2023/11/17 03:58:46;;;;;;;6.55;2.30;;;;;;;;;;5039233;28;20380;-61
2023/11/17 04:01:12;;;;;;;7.07;2.67;;;;;;;;;;5034405;28;20044;-64
2023/11/17 04:03:38;;;;;;;11.13;2.88;;;;;;;;;;5034589;28;20041;-61
2023/11/17 04:06:05;;;;;;;6.47;2.90;;;;;;;;;;5039607;28;20160;-61
2023/11/17 04:08:31;;;;;;;11.98;2.88;;;;;;;;;;5033975;28;20040;-62
2023/11/17 04:10:57;;;;;;;8.07;2.20;;;;;;;;;;5034382;28;20071;-62
2023/11/17 04:13:24;;;;;;;9.45;2.17;;;;;;;;;;5015621;28;20078;-63
2023/11/17 04:15:51;;;;;;;9.25;2.20;;;;;;;;;;5005256;28;20032;-62
2023/11/17 04:18:17;;;;;;;4.40;2.50;;;;;;;;;;5039512;28;20033;-62
2023/11/17 04:20:44;;;;;;;4.60;2.00;;;;;;;;;;5029712;28;20482;-63
2023/11/17 04:23:10;;;;;;;5.53;2.70;;;;;;;;;;5037965;28;20057;-60
2023/11/17 04:25:36;;;;;;;6.72;2.75;;;;;;;;;;5017024;28;20039;-61
2023/11/17 04:28:03;;;;;;;5.28;2.03;;;;;;;;;;5021740;28;20061;-63
2023/11/17 04:30:29;;;;;;;7.60;2.38;;;;;;;;;;5040461;28;20053;-60
2023/11/17 04:32:57;;;;;;;7.53;2.47;;;;;;;;;;5034524;28;20439;-61
2023/11/17 04:35:23;;;;;;;4.28;2.08;;;;;;;;;;5035221;28;20017;-62
2023/11/17 04:37:49;;;;;;;10.98;3.17;;;;;;;;;;5039686;28;20372;-62
2023/11/17 04:40:16;;;;;;;9.27;2.47;;;;;;;;;;5037814;28;20100;-61
2023/11/17 04:42:42;;;;;;;2.55;1.98;;;;;;;;;;5027878;28;20055;-62
2023/11/17 04:45:09;;;;;;;8.32;2.63;;;;;;;;;;5015016;28;20507;-60
2023/11/17 04:47:36;;;;;;;7.65;2.75;;;;;;;;;;5037848;28;20021;-59
2023/11/17 04:50:03;;;;;;;4.38;2.10;;;;;;;;;;5036712;28;20140;-60
2023/11/17 04:52:30;;;;;;;8.07;2.28;;;;;;;;;;5009278;28;20033;-60
2023/11/17 04:55:02;;;;;;;5.78;2.28;;;;;;;;;;5032319;28;20021;-60
2023/11/17 04:57:29;;;;;;;7.20;2.50;;;;;;;;;;5038992;28;20033;-66
2023/11/17 04:59:55;;;;;;;3.97;2.17;;;;;;;;;;5039595;28;20021;-61
2023/11/17 05:02:21;;;;;;;4.97;2.33;;;;;;;;;;5036842;28;20534;-62
2023/11/17 05:04:48;;;;;;;5.68;2.85;;;;;;;;;;5036368;28;20048;-64
2023/11/17 05:07:14;;;;;;;3.58;2.42;;;;;;;;;;5032832;28;20534;-61
2023/11/17 05:09:42;;;;;;;9.00;2.83;;;;;;;;;;5039084;28;20087;-63
2023/11/17 05:12:08;;;;;;;2.65;2.05;;;;;;;;;;5037437;28;20029;-62
2023/11/17 05:14:36;;;;;;;6.55;3.45;;;;;;;;;;5030709;28;20064;-62
2023/11/17 05:17:07;;;;;;;7.70;3.05;;;;;;;;;;5036463;28;20029;-66
2023/11/17 05:19:34;;;;;;;7.75;2.22;;;;;;;;;;5034879;28;20068;-61
2023/11/17 05:22:03;;;;;;;6.63;2.72;;;;;;;;;;5037804;28;20037;-68
2023/11/17 05:24:30;;;;;;;8.10;2.13;;;;;;;;;;5038965;28;20037;-63
2023/11/17 05:26:57;;;;;;;5.25;2.38;;;;;;;;;;5037148;28;20052;-61
2023/11/17 05:29:23;;;;;;;8.15;2.08;;;;;;;;;;5034871;28;20033;-61
2023/11/17 05:31:49;;;;;;;5.95;2.70;;;;;;;;;;5031180;28;20071;-61
2023/11/17 05:34:15;;;;;;;6.55;2.42;;;;;;;;;;5032243;28;20067;-68
2023/11/17 05:36:43;;;;;;;8.50;2.45;;;;;;;;;;5035751;28;20051;-62
2023/11/17 05:39:11;;;;;;;7.20;2.25;;;;;;;;;;5033464;28;20427;-62
2023/11/17 05:41:41;;;;;;;6.85;2.15;;;;;;;;;;5042057;28;20033;-64
2023/11/17 05:44:08;;;;;;;6.20;2.20;;;;;;;;;;5036327;28;20474;-62
2023/11/17 05:46:35;;;;;;;4.65;2.13;;;;;;;;;;5038982;28;20087;-62
2023/11/17 05:49:01;;;;;;;5.45;2.22;;;;;;;;;;5035914;28;20037;-62
2023/11/17 05:51:27;;;;;;;6.15;2.28;;;;;;;;;;5040987;28;20116;-64
2023/11/17 05:53:54;;;;;;;3.72;2.25;;;;;;;;;;5033102;28;20032;-62
2023/11/17 05:56:20;;;;;;;6.13;2.42;;;;;;;;;;5033852;28;20322;-62
2023/11/17 05:58:46;;;;;;;4.20;2.10;;;;;;;;;;5024592;28;20426;-62
2023/11/17 06:01:13;;;;;;;6.22;2.35;;;;;;;;;;5033991;28;20087;-61
2023/11/17 06:03:39;;;;;;;6.60;2.03;;;;;;;;;;5031721;28;20506;-62
2023/11/17 06:06:05;;;;;;;5.38;2.25;;;;;;;;;;5036350;28;20497;-61
2023/11/17 06:08:31;;;;;;;4.53;2.50;;;;;;;;;;5037256;28;20029;-64
2023/11/17 06:11:01;;;;;;;6.63;2.35;;;;;;;;;;5034808;28;20056;-61
2023/11/17 06:13:27;;;;;;;8.60;2.67;;;;;;;;;;5029012;28;20037;-62
2023/11/17 06:15:53;;;;;;;10.68;2.47;;;;;;;;;;5027300;28;20029;-63
2023/11/17 06:18:20;;;;;;;5.88;2.25;;;;;;;;;;5032175;28;20021;-62
2023/11/17 06:20:49;;;;;;;6.20;2.35;;;;;;;;;;5033556;28;20116;-61
2023/11/17 06:23:15;;;;;;;6.13;2.10;;;;;;;;;;5012563;28;20493;-61
2023/11/17 06:25:42;;;;;;;5.88;2.03;;;;;;;;;;5031134;28;21482;-62
2023/11/17 06:28:08;;;;;;;10.18;2.30;;;;;;;;;;5031063;28;20029;-62
2023/11/17 06:30:34;;;;;;;4.18;1.90;;;;;;;;;;5030247;28;20107;-61
2023/11/17 06:33:00;;;;;;;6.72;2.17;;;;;;;;;;5033078;28;20033;-61
2023/11/17 06:35:26;;;;;;;6.20;2.45;;;;;;;;;;5037460;28;20524;-61
2023/11/17 06:37:52;;;;;;;5.15;2.20;;;;;;;;;;5041052;28;20029;-61
2023/11/17 06:40:18;;;;;;;6.22;2.10;;;;;;;;;;5030532;28;20028;-61
2023/11/17 06:42:44;;;;;;;3.15;2.10;;;;;;;;;;5028455;28;20029;-61
2023/11/17 06:45:12;;;;;;;4.35;2.20;;;;;;;;;;5037969;28;20062;-64
2023/11/17 06:47:42;;;;;;;3.78;2.45;;;;;;;;;;5025158;28;20017;-60
2023/11/17 06:50:11;;;;;;;2.92;1.77;;;;;;;;;;5027738;28;20029;-61
2023/11/17 06:52:38;;;;;;;3.33;2.20;;;;;;;;;;5036818;28;20029;-61
2023/11/17 06:55:04;;;;;;;7.97;2.65;;;;;;;;;;5031516;28;20466;-61
2023/11/17 06:57:32;;;;;;;4.68;2.70;;;;;;;;;;5021467;28;20033;-60
2023/11/17 06:59:58;;;;;;;6.15;2.22;;;;;;;;;;5022600;28;20291;-61
2023/11/17 07:02:24;;;;;;;3.28;2.28;;;;;;;;;;5032745;28;20033;-62
2023/11/17 07:04:52;;;;;;;4.95;1.83;;;;;;;;;;5029199;28;20055;-61
2023/11/17 07:07:19;;;;;;;7.20;2.20;;;;;;;;;;5024772;28;20029;-62
2023/11/17 07:09:48;;;;;;;7.05;2.70;;;;;;;;;;5034417;28;20052;-61
2023/11/17 07:12:15;;;;;;;6.15;2.78;;;;;;;;;;5027170;28;20502;-61
2023/11/17 07:14:41;;;;;;;4.45;2.28;;;;;;;;;;5037862;28;20025;-61
2023/11/17 07:17:08;;;;;;;5.43;2.10;;;;;;;;;;5039210;28;20029;-62
2023/11/17 07:19:34;;;;;;;5.25;2.53;;;;;;;;;;5018322;28;20031;-62
2023/11/17 07:22:01;;;;;;;8.45;2.85;;;;;;;;;;5032650;28;20041;-61
2023/11/17 07:24:29;;;;;;;9.93;3.00;;;;;;;;;;5037818;28;20029;-61
2023/11/17 07:26:55;;;;;;;10.15;2.30;;;;;;;;;;5039260;28;20041;-60
2023/11/17 07:29:23;;;;;;;6.00;2.17;;;;;;;;;;5032413;28;20494;-62
2023/11/17 07:31:50;;;;;;;5.80;2.47;;;;;;;;;;5036389;28;20518;-61
2023/11/17 07:34:18;;;;;;;3.58;1.80;;;;;;;;;;5017979;28;20028;-60
2023/11/17 07:36:45;;;;;;;8.88;2.75;;;;;;;;;;5035222;28;20033;-62
2023/11/17 07:39:14;;;;;;;10.25;2.63;;;;;;;;;;5015912;28;20244;-61
2023/11/17 07:41:41;;;;;;;7.28;2.45;;;;;;;;;;5036923;28;20017;-61
2023/11/17 07:44:08;;;;;;;3.78;2.25;;;;;;;;;;5032841;28;20171;-61
2023/11/17 07:46:34;;;;;;;9.02;2.35;;;;;;;;;;5041615;28;20238;-61
2023/11/17 07:49:02;;;;;;;5.13;2.20;;;;;;;;;;5029220;28;20033;-61
2023/11/17 07:51:28;;;;;;;9.18;2.88;;;;;;;;;;5030847;28;20120;-62
2023/11/17 07:53:54;;;;;;;12.13;2.50;;;;;;;;;;5039473;28;20498;-61
2023/11/17 07:56:20;;;;;;;13.68;2.72;;;;;;;;;;5038077;28;20028;-62
2023/11/17 07:58:48;;;;;;;9.10;3.10;;;;;;;;;;5030784;28;20099;-61
2023/11/17 08:01:14;;;;;;;5.85;2.80;;;;;;;;;;5037179;28;20057;-61
2023/11/17 08:03:43;;;;;;;2.92;2.00;;;;;;;;;;5029624;28;20049;-61
2023/11/17 08:06:10;;;;;;;8.23;2.15;;;;;;;;;;5036346;28;20025;-62
2023/11/17 08:08:40;;;;;;;9.82;2.50;;;;;;;;;;5018575;28;20044;-62
2023/11/17 08:11:11;;;;;;;7.80;2.30;;;;;;;;;;5021742;28;20029;-61
2023/11/17 08:13:37;;;;;;;4.22;2.42;;;;;;;;;;5033912;28;20037;-61
2023/11/17 08:16:06;;;;;;;4.80;2.30;;;;;;;;;;5038298;28;20030;-63
2023/11/17 08:18:33;;;;;;;7.97;1.83;;;;;;;;;;5032709;28;20095;-61
2023/11/17 08:20:59;;;;;;;2.95;2.45;;;;;;;;;;5035054;28;20300;-65
2023/11/17 08:23:26;;;;;;;4.93;2.30;;;;;;;;;;5034560;28;20100;-61
2023/11/17 08:25:52;;;;;;;7.50;2.60;;;;;;;;;;5026499;28;20068;-60
2023/11/17 08:28:18;;;;;;;4.05;2.33;;;;;;;;;;5040593;28;20048;-63
2023/11/17 08:30:45;;;;;;;5.05;2.42;;;;;;;;;;5036334;28;20036;-60
2023/11/17 08:33:11;;;;;;;5.53;2.15;;;;;;;;;;5032413;28;20041;-61
2023/11/17 08:35:38;;;;;;;8.63;2.53;;;;;;;;;;5037111;28;20033;-62
2023/11/17 08:38:06;;;;;;;4.75;2.40;;;;;;;;;;5038299;28;20364;-65
2023/11/17 08:40:32;;;;;;;7.30;2.97;;;;;;;;;;5034662;28;20029;-60
2023/11/17 08:42:58;;;;;;;9.65;2.63;;;;;;;;;;5030871;28;20074;-61
2023/11/17 08:45:25;;;;;;;3.22;2.03;;;;;;;;;;5037153;28;20127;-62
2023/11/17 08:47:51;;;;;;;9.45;2.97;;;;;;;;;;5032629;28;20033;-61
2023/11/17 08:50:17;;;;;;;4.18;2.28;;;;;;;;;;5023829;28;20040;-61
2023/11/17 08:52:45;;;;;;;7.32;2.70;;;;;;;;;;5027573;28;20039;-61
2023/11/17 08:55:15;;;;;;;5.32;2.35;;;;;;;;;;5030573;28;20576;-61
2023/11/17 08:57:43;;;;;;;5.03;2.90;;;;;;;;;;5035882;28;20029;-61
2023/11/17 09:00:18;;;;;;;7.40;2.30;;;;;;;;;;5008915;28;20514;-62
2023/11/17 09:02:49;;;;;;;5.45;2.28;;;;;;;;;;5024600;28;20029;-62
2023/11/17 09:05:16;;;;;;;5.55;2.15;;;;;;;;;;5011833;28;20477;-61
2023/11/17 09:07:42;;;;;;;3.08;1.80;;;;;;;;;;5008122;28;20033;-62
2023/11/17 09:10:11;;;;;;;8.45;3.08;;;;;;;;;;5027644;28;20022;-61
2023/11/17 09:12:39;;;;;;;5.22;2.42;;;;;;;;;;5028687;28;20112;-62
2023/11/17 09:15:09;;;;;;;8.30;2.78;;;;;;;;;;5024420;28;20112;-61
2023/11/17 09:17:35;;;;;;;6.90;2.22;;;;;;;;;;5028400;28;20028;-61
2023/11/17 09:20:06;;;;;;;6.60;2.35;;;;;;;;;;5035308;28;20026;-61
2023/11/17 09:22:32;;;;;;;6.32;2.38;;;;;;;;;;5016998;28;20036;-62
2023/11/17 09:24:59;;;;;;;7.00;2.50;;;;;;;;;;5036842;28;20055;-63
2023/11/17 09:27:26;;;;;;;10.63;3.13;;;;;;;;;;5022898;28;20164;-61
2023/11/17 09:29:53;;;;;;;6.90;2.65;;;;;;;;;;5019605;28;20128;-62
2023/11/17 09:32:20;;;;;;;6.20;2.15;;;;;;;;;;5032632;28;20504;-63
2023/11/17 09:34:47;;;;;;;4.40;2.22;;;;;;;;;;5028442;28;20033;-62
2023/11/17 09:37:16;;;;;;;3.20;2.25;;;;;;;;;;5030009;28;20377;-62
2023/11/17 09:39:43;;;;;;;7.57;2.67;;;;;;;;;;5034709;28;20888;-64
2023/11/17 09:42:10;;;;;;;11.70;2.92;;;;;;;;;;5040632;28;20543;-63
2023/11/17 09:44:39;;;;;;;3.70;2.20;;;;;;;;;;5037923;28;20155;-64
2023/11/17 09:47:08;;;;;;;3.60;2.08;;;;;;;;;;5014665;28;20082;-62
2023/11/17 09:49:38;;;;;;;5.47;2.58;;;;;;;;;;5044605;28;20033;-72
2023/11/17 09:52:07;;;;;;;6.15;2.15;;;;;;;;;;5037291;28;20072;-71
2023/11/17 09:54:35;;;;;;;6.78;2.40;;;;;;;;;;5039367;28;20882;-70
2023/11/17 09:57:03;;;;;;;5.95;2.28;;;;;;;;;;5036696;28;20029;-69
2023/11/17 09:59:32;;;;;;;7.38;2.63;;;;;;;;;;5034206;28;20035;-71
2023/11/17 10:01:59;;;;;;;6.30;2.33;;;;;;;;;;5031377;28;20037;-72
2023/11/17 10:04:25;;;;;;;3.47;2.08;;;;;;;;;;5033233;28;20068;-72
2023/11/17 10:06:52;;;;;;;6.40;2.42;;;;;;;;;;5037985;28;20061;-70
2023/11/17 10:09:19;;;;;;;5.85;2.20;;;;;;;;;;5003040;28;20398;-69
2023/11/17 10:11:50;;;;;;;5.18;2.28;;;;;;;;;;5027609;28;20567;-69
2023/11/17 10:14:18;;;;;;;7.63;2.50;;;;;;;;;;5037719;28;20856;-71
2023/11/17 10:16:46;;;;;;;4.60;2.22;;;;;;;;;;5037667;28;20501;-71
2023/11/17 10:19:16;;;;;;;6.53;2.35;;;;;;;;;;5045122;28;20136;-68
2023/11/17 10:21:45;;;;;;;5.35;2.60;;;;;;;;;;5042228;28;20072;-70
2023/11/17 10:24:12;;;;;;;6.90;2.20;;;;;;;;;;5046760;28;20410;-69
2023/11/17 10:26:39;;;;;;;4.78;2.15;;;;;;;;;;5043022;28;20486;-70
2023/11/17 10:29:08;;;;;;;6.55;2.20;;;;;;;;;;5048022;28;20025;-70
2023/11/17 10:31:37;;;;;;;3.47;2.10;;;;;;;;;;5039551;28;20033;-71
2023/11/17 10:34:03;;;;;;;8.82;2.08;;;;;;;;;;5044817;28;20028;-71
2023/11/17 10:36:30;;;;;;;7.72;3.47;;;;;;;;;;5042386;28;20059;-72
2023/11/17 10:39:10;;;;;;;8.05;2.47;;;;;;;;;;5047300;28;20125;-71
2023/11/17 10:41:36;;;;;;;7.30;2.10;;;;;;;;;;5042353;28;20025;-71
2023/11/17 10:44:03;;;;;;;7.85;2.30;;;;;;;;;;5023783;28;20563;-72
2023/11/17 10:46:35;;;;;;;6.60;2.97;;;;;;;;;;5038352;28;20344;-72
2023/11/17 10:49:04;;;;;;;8.18;2.67;;;;;;;;;;5039585;28;20041;-72
2023/11/17 10:51:32;;;;;;;2.83;2.20;;;;;;;;;;5041727;28;20079;-71
2023/11/17 10:54:11;;;;;;;6.07;1.98;;;;;;;;;;5042828;28;20085;-72
2023/11/17 10:56:38;;;;;;;6.88;2.28;;;;;;;;;;5025895;28;20029;-71
2023/11/17 10:59:08;;;;;;;3.72;2.25;;;;;;;;;;5045592;28;20040;-72
2023/11/17 11:01:37;;;;;;;7.32;2.08;;;;;;;;;;5044188;28;20044;-72
2023/11/17 11:04:26;;;;;;;5.85;2.88;;;;;;;;;;5044915;28;20131;-71
2023/11/17 11:06:55;;;;;;;5.63;2.10;;;;;;;;;;5042306;28;20420;-71
2023/11/17 11:09:33;;;;;;;5.05;2.20;;;;;;;;;;5041729;28;20033;-72
2023/11/17 11:11:59;;;;;;;9.65;2.65;;;;;;;;;;5038035;28;21831;-71
2023/11/17 11:14:27;;;;;;;6.82;2.22;;;;;;;;;;5038450;28;20021;-72
2023/11/17 11:16:54;;;;;;;3.17;1.90;;;;;;;;;;5039290;28;20037;-70
2023/11/17 11:19:20;;;;;;;7.13;2.20;;;;;;;;;;5042435;28;20342;-74
2023/11/17 11:21:55;;;;;;;8.07;2.45;;;;;;;;;;5037809;28;20107;-70
2023/11/17 11:24:22;;;;;;;6.22;2.42;;;;;;;;;;5029774;28;20525;-73
2023/11/17 11:26:51;;;;;;;10.48;2.35;;;;;;;;;;5041279;28;20508;-72
2023/11/17 11:29:18;;;;;;;5.53;2.22;;;;;;;;;;5023902;28;20125;-72
2023/11/17 11:31:49;;;;;;;6.05;2.55;;;;;;;;;;5040121;28;20520;-72
2023/11/17 11:34:15;;;;;;;5.03;2.35;;;;;;;;;;5022299;28;20040;-72
2023/11/17 11:36:43;;;;;;;11.50;2.50;;;;;;;;;;5023245;28;20067;-72
2023/11/17 11:39:10;;;;;;;5.43;2.33;;;;;;;;;;5035359;28;20029;-72
2023/11/17 11:41:36;;;;;;;4.65;2.22;;;;;;;;;;5038681;28;20005;-64
2023/11/17 11:44:03;;;;;;;5.40;2.35;;;;;;;;;;5020595;28;20384;-63
2023/11/17 11:46:29;;;;;;;5.13;1.88;;;;;;;;;;5020699;28;20038;-63
2023/11/17 11:49:04;;;;;;;8.48;2.67;;;;;;;;;;5041346;28;20044;-63
2023/11/17 11:51:32;;;;;;;4.07;2.00;;;;;;;;;;5019037;28;20047;-62
2023/11/17 11:54:04;;;;;;;5.10;2.22;;;;;;;;;;5020728;28;20135;-63
2023/11/17 11:56:31;;;;;;;3.00;2.08;;;;;;;;;;5038298;28;20348;-63
2023/11/17 11:58:59;;;;;;;4.35;2.10;;;;;;;;;;5018583;28;20065;-62
2023/11/17 12:01:32;;;;;;;8.60;2.60;;;;;;;;;;5019677;28;20042;-63
2023/11/17 12:04:05;;;;;;;5.68;2.10;;;;;;;;;;5037165;28;20406;-62
2023/11/17 12:06:33;;;;;;;5.05;2.10;;;;;;;;;;5040376;28;20060;-61
2023/11/17 12:09:25;;;;;;;4.55;2.10;;;;;;;;;;5037861;28;20063;-65
2023/11/17 12:11:51;;;;;;;8.32;1.83;;;;;;;;;;5046402;28;20782;-63
2023/11/17 12:14:18;;;;;;;12.23;2.45;;;;;;;;;;5034939;28;20119;-62
2023/11/17 12:16:58;;;;;;;9.73;2.22;;;;;;;;;;5043119;28;20036;-61
2023/11/17 12:19:35;;;;;;;6.32;2.00;;;;;;;;;;5044240;28;21541;-63
2023/11/17 12:22:02;;;;;;;4.57;2.22;;;;;;;;;;5021476;28;20623;-62
2023/11/17 12:24:30;;;;;;;5.93;2.03;;;;;;;;;;5024941;28;20036;-64
2023/11/17 12:26:57;;;;;;;4.20;2.33;;;;;;;;;;5024678;28;20125;-65
2023/11/17 12:29:24;;;;;;;5.13;2.88;;;;;;;;;;5031957;28;20059;-65
2023/11/17 12:31:51;;;;;;;6.05;2.05;;;;;;;;;;5031457;28;20127;-67
2023/11/17 12:34:17;;;;;;;3.42;1.95;;;;;;;;;;5033532;28;20114;-67
2023/11/17 12:36:47;;;;;;;3.45;2.15;;;;;;;;;;5015569;28;20025;-67
2023/11/17 12:39:20;;;;;;;8.50;2.50;;;;;;;;;;5013968;28;20025;-69
2023/11/17 12:41:51;;;;;;;5.53;2.83;;;;;;;;;;5013383;28;20124;-67
2023/11/17 12:44:17;;;;;;;2.30;1.98;;;;;;;;;;5036740;28;20067;-66
2023/11/17 12:46:44;;;;;;;6.55;2.22;;;;;;;;;;5033716;28;20075;-68
2023/11/17 12:49:12;;;;;;;8.85;2.35;;;;;;;;;;5020383;28;20112;-68
2023/11/17 12:51:40;;;;;;;5.88;2.67;;;;;;;;;;5031073;28;20040;-67
2023/11/17 12:54:06;;;;;;;5.18;2.20;;;;;;;;;;5036150;28;20027;-66
2023/11/17 12:56:32;;;;;;;5.53;2.10;;;;;;;;;;5017867;28;20037;-70
2023/11/17 12:58:59;;;;;;;6.35;2.00;;;;;;;;;;5036423;28;20538;-68
2023/11/17 13:01:28;;;;;;;7.65;2.53;;;;;;;;;;5041234;28;20441;-68
2023/11/17 13:04:02;;;;;;;2.58;1.90;;;;;;;;;;5039492;28;20497;-68
2023/11/17 13:06:30;;;;;;;8.57;4.10;;;;;;;;;;5036204;28;20100;-68
2023/11/17 13:08:56;;;;;;;7.03;2.63;;;;;;;;;;5033384;28;20040;-71
2023/11/17 13:11:32;;;;;;;4.47;2.38;;;;;;;;;;5033369;28;20029;-67
2023/11/17 13:14:03;;;;;;;5.90;2.08;;;;;;;;;;5035127;28;20397;-69
2023/11/17 13:16:31;;;;;;;9.25;2.38;;;;;;;;;;5037400;28;20033;-68
2023/11/17 13:19:00;;;;;;;7.00;2.42;;;;;;;;;;5022982;28;20025;-67
2023/11/17 13:21:29;;;;;;;5.43;2.22;;;;;;;;;;5041411;28;20037;-66
2023/11/17 13:23:55;;;;;;;6.35;2.25;;;;;;;;;;5018932;28;20025;-67
2023/11/17 13:26:28;;;;;;;4.72;2.13;;;;;;;;;;5042261;28;20939;-68
2023/11/17 13:28:56;;;;;;;4.97;1.92;;;;;;;;;;5018723;28;20059;-68
2023/11/17 13:31:23;;;;;;;8.32;2.30;;;;;;;;;;5019490;28;20031;-67
2023/11/17 13:33:52;;;;;;;5.22;1.92;;;;;;;;;;5017649;28;20032;-67
2023/11/17 13:36:22;;;;;;;6.70;2.38;;;;;;;;;;5046140;28;20064;-67
2023/11/17 13:38:58;;;;;;;10.75;2.30;;;;;;;;;;5040017;28;20605;-67
2023/11/17 13:41:28;;;;;;;9.80;3.33;;;;;;;;;;5045547;28;20025;-67
2023/11/17 13:44:00;;;;;;;8.27;3.10;;;;;;;;;;5028419;28;20144;-72
2023/11/17 13:46:34;;;;;;;6.55;3.38;;;;;;;;;;5038011;28;20801;-72
2023/11/17 13:49:14;;;;;;;10.20;3.30;;;;;;;;;;5032241;28;20029;-71
2023/11/17 13:51:41;;;;;;;9.48;3.00;;;;;;;;;;5038577;28;20033;-71
2023/11/17 13:54:08;;;;;;;9.70;4.00;;;;;;;;;;5038218;28;20398;-70
2023/11/17 13:56:46;;;;;;;10.95;3.63;;;;;;;;;;5041277;28;20565;-70
2023/11/17 13:59:19;;;;;;;6.85;3.35;;;;;;;;;;5040427;28;20033;-70
2023/11/17 14:01:52;;;;;;;7.22;3.33;;;;;;;;;;5023023;28;20040;-69
2023/11/17 14:04:24;;;;;;;9.32;3.13;;;;;;;;;;5035982;28;20051;-70
2023/11/17 14:06:53;;;;;;;7.03;2.80;;;;;;;;;;5023898;28;20253;-70
2023/11/17 14:09:22;;;;;;;8.25;2.35;;;;;;;;;;5023189;28;20214;-69
2023/11/17 14:11:52;;;;;;;10.25;2.50;;;;;;;;;;5041758;28;20041;-70
2023/11/17 14:14:19;;;;;;;8.25;2.85;;;;;;;;;;5032154;28;20184;-71
2023/11/17 14:16:49;;;;;;;10.52;3.30;;;;;;;;;;5040055;28;20375;-72
2023/11/17 14:19:15;;;;;;;7.40;3.97;;;;;;;;;;5041375;28;20017;-69
2023/11/17 14:21:45;;;;;;;8.43;4.22;;;;;;;;;;5016813;28;20510;-72
2023/11/17 14:24:19;;;;;;;12.32;6.80;;;;;;;;;;5038916;28;20144;-69
2023/11/17 14:26:46;;;;;;;11.02;4.70;;;;;;;;;;5019847;28;20032;-70
2023/11/17 14:29:17;;;;;;;5.68;3.17;;;;;;;;;;5047106;28;20280;-66
2023/11/17 14:31:44;;;;;;;12.70;3.20;;;;;;;;;;5042850;28;20043;-66
2023/11/17 14:34:13;;;;;;;5.68;3.63;;;;;;;;;;5024772;28;20024;-67
2023/11/17 14:36:39;;;;;;;11.82;5.55;;;;;;;;;;5042688;28;20048;-67
2023/11/17 14:39:09;;;;;;;13.85;6.50;;;;;;;;;;5033603;28;20043;-67
2023/11/17 14:41:37;;;;;;;14.25;6.70;;;;;;;;;;5033776;28;20029;-70
2023/11/17 14:44:05;;;;;;;23.35;10.05;;;;;;;;;;5039634;28;20040;-70
2023/11/17 14:46:32;;;;;;;21.65;8.38;;;;;;;;;;5039815;28;20028;-70